Главная страница
METAR-TAF:

METAR-TAF

Аэропорты :

Хёугесунн, Норвегия

широта: 59-21N, долгота: 005-13E, высота над уровнем моря: 2 м

Текущие метеонаблюдения

Эта сводка был подготовлена 39 минут назад, в 09:20 UTC
Ветер 10 Узел от юго-восточный
Температура 19°C
Влажность 88%
Давление 1016 hPa
Видимость 10 км и более

METAR: ENHD 060920Z AUTO 13010KT 9999 FEW005/// SCT072/// 19/17 Q1016

Время: 11:59 (09:59 UTC)

Прогноз

Эта сводка был подготовлена 7 часа и 59 минут назад, в 02:00 UTC
Прогноз действительный с 06-го 03 UTC до 06-го 08 UTC
Ветер 12 Узел от южный
Видимость: 8000 м
Отдельные облака на высоте 700 фута
Рассеянная облачность на высоте 1500 фута
временами
С 06-го 03 UTC до 06-го 07 UTC
Видимость: 2500 м
Рассеянная облачность на высоте 400 фута
небольшой морось, дымка

TAF: ENHD 060200Z 0603/0608 17012KT 8000 SCT007 BKN015 TEMPO 0603/0607 2500 -DZ BR BKN004

Метеонаблюдения и прогнозы для более 4000 аэропортов (сводки METAR и TAF).

Имеющиеся станции представлены на карте желтыми и красными точками.

Чтобы увидеть название станции, наведите на нее мышь.

Затем щелкните, чтобы увидеть метеонаблюдения и метеопрогнозы.

Управление картой: чтобы увеличить масштаб, щелкните зеленые кнопки с черным крестиком; чтобы уменьшить масштаб, щелкните зеленую кнопку с тире; для просмотра соседних карт щелкайте зеленые стрелки.


METAR-TAF: